Weather observations for the past three days for
Ithaca Tompkins International Airport
Imperial (Metric)
Date Time (edt) Wind (mph) Vis. (mi.) Weather Sky Cond. Temperature (ºF) Relative Humidity Wind Chill (°F) Heat Index (°F) Pressure Precipitation (in)
Air Dwpt 6 hour altimeter (in) sea level (mb) 1 hr 3 hr 6 hr
Max. Min.
04 17:56 N 6 10.00 Partly Cloudy SCT039 73 61 66% 29.92 1012.8
04 16:56 N 10 10.00 Partly Cloudy SCT039 75 62.1 64% 77 29.93 1012.8
04 14:56 W 12 10.00 Mostly Cloudy BKN040 75.9 62.1 62% 78 29.96 1013.9
04 13:56 W 9 10.00 Mostly Cloudy BKN030 75 62.1 75 64.9 64% 77 29.97 1014.2
04 12:56 NW 10 10.00 Mostly Cloudy BKN021 73.9 63 69% 29.98 1014.6
04 11:56 NW 6 10.00 Mostly Cloudy BKN021 71.1 64 79% 29.99 1014.9
04 10:56 W 8 10.00 Mostly Cloudy BKN017 68 64 87% 29.99 1015.0
04 09:56 NW 7 10.00 Overcast BKN013 OVC048 66.9 64 91% 29.99 1014.9
04 08:56 NW 7 10.00 Mostly Cloudy BKN013 BKN042 66 63 90% 29.99 1015.0
04 06:56 NW 5 10.00 Mostly Cloudy BKN045 64 63 96% 29.97 1014.4
04 05:56 NW 5 10.00 Overcast OVC047 64.9 64 97% 29.96 1013.9
04 04:56 NW 6 6.00 Fog/Mist BKN040 OVC050 66 66 100% 29.96 1013.6
04 03:56 NW 3 0.25 Fog VV002 66.9 66.9 100% 29.93 1012.7
04 02:56 Calm 10.00 Overcast SCT004 OVC032 66.9 66 97% 29.93 1012.6
04 01:56 N 3 10.00 Overcast BKN024 BKN030 OVC036 68 66.9 73 68 96% 29.93 1013.0
04 00:56 Calm 6.00 Fog/Mist SCT009 BKN012 OVC024 69.1 68 96% 29.95 1013.4
03 23:56 N 3 7.00 Light Rain FEW006 SCT026 BKN039 BKN060 OVC080 70 69.1 97% 29.95 1013.4
03 22:56 Calm 7.00 Thunderstorm in Vicinity FEW024 SCT030 BKN035 BKN060 OVC100 70 70 100% 29.93 1013.0
03 21:56 E 3 6.00 Rain Fog/Mist SCT041 OVC050 71.1 70 96% 29.94 1013.4
03 20:56 Calm 10.00 Overcast SCT030 OVC042 71.1 70 96% 29.95 1013.5
03 19:56 NE 5 10.00 Mostly Cloudy SCT030 BKN070 73 70 80.1 73 90% 29.94 1013.0
03 18:56 W 5 10.00 Partly Cloudy SCT060 77 70 79% 79 29.94 1013.0
03 17:56 NW 6 10.00 Partly Cloudy SCT080 79 72 79% 82 29.92 1012.4
03 16:56 W 6 10.00 Partly Cloudy SCT070 79 70 74% 82 29.92 1012.6
03 15:56 W 9 10.00 Mostly Cloudy BKN026 79 70 74% 82 29.94 1013.1
03 14:56 NW 5 10.00 Mostly Cloudy BKN040 77 70 79% 79 29.95 1013.7
03 13:56 NW 6 10.00 Overcast OVC027 75.9 70 79 69.1 82% 77 29.97 1014.1
03 12:56 W 6 10.00 Overcast OVC023 75.9 70 82% 77 29.97 1014.1
03 11:56 W 3 10.00 Mostly Cloudy BKN017 75 70 84% 75 29.98 1014.6
03 10:56 S 5 10.00 Mostly Cloudy BKN016 73 69.1 87% 29.99 1014.9
03 09:56 SW 5 10.00 Overcast OVC030 71.1 68 90% 29.98 1014.7
03 08:56 SW 5 10.00 Overcast OVC021 69.8 66.2 88% 29.99 0.0
03 07:56 Calm 10.00 Overcast OVC025 69.1 66 69.1 66 90% 29.98 1014.6
03 06:56 S 5 10.00 Mostly Cloudy SCT065 BKN100 66 64.9 96% 29.96 1014.2
03 05:56 S 6 10.00 Mostly Cloudy BKN110 66.9 64.9 93% 29.97 1014.1
03 04:56 SE 6 10.00 Partly Cloudy SCT050 SCT090 66 64.9 96% 29.96 1013.9
03 03:56 S 8 10.00 Overcast BKN060 OVC080 66 64.9 96% 29.96 1013.9
03 02:56 S 9 0.00 NULL NULL 66 64.9 96% 29.97 1014.1
03 01:56 S 8 10.00 Overcast FEW048 BKN060 OVC070 66 64.9 73 64.9 96% 29.98 1014.6
03 00:56 S 8 10.00 Overcast BKN050 OVC070 66 64.9 96% 29.97 1014.2
02 23:56 SE 10 10.00 Light Rain FEW055 FEW070 BKN090 OVC110 66 64.9 96% 29.99 1015.0
02 22:56 S 10 10.00 Light Rain BKN100 OVC130 66 64.9 96% 29.98 1014.7
02 21:56 S 8 10.00 Thunderstorm Rain FEW016 OVC100 66 64.9 96% 30.03 1016.5 0.01
02 20:56 SE 6 10.00 Overcast SCT013 OVC060 71.1 69.1 94% 30.01 1015.5
02 19:56 SE 13 10.00 Mostly Cloudy BKN050 73 70 80.1 73 90% 29.98 1014.4
02 18:56 SE 9 10.00 Partly Cloudy SCT025 73.9 71.1 91% 29.98 1014.4
02 17:56 SE 8 10.00 A Few Clouds FEW024 77 72 85% 78 29.98 1014.4
02 16:56 SE 8 10.00 Mostly Cloudy BKN018 78.1 72 82% 80 30.01 1015.7
02 15:56 SE 12 G 21 10.00 Mostly Cloudy BKN040 78.1 72 82% 80 30 1015.1
02 14:56 SE 13 10.00 Mostly Cloudy BKN018 80.1 72 76% 84 30.03 1016.4
02 13:56 SE 12 10.00 Mostly Cloudy BKN013 BKN019 77 72 77 68 85% 78 30.04 1016.7
02 12:56 SE 13 10.00 Mostly Cloudy BKN013 BKN019 77 72 85% 78 30.06 1017.4
02 11:56 SE 6 10.00 A Few Clouds FEW010 73 69.1 87% 30.07 1017.7
02 10:56 S 7 5.00 Thunderstorm Rain Fog/Mist BKN008 BKN019 OVC048 68 66.9 96% 30.05 1017.2
02 09:56 SE 7 4.00 Thunderstorm Heavy Rain Fog/Mist BKN012 BKN024 BKN048 OVC095 69.1 68 96% 30.06 1017.3
02 08:56 S 7 9.00 Mostly Cloudy SCT008 BKN120 70 69.1 97% 30.06 1017.5
02 07:56 SE 7 8.00 Overcast BKN008 BKN045 OVC055 69.1 69.1 69.1 62.1 100% 30.04 1016.5
02 06:56 SE 6 9.00 Mostly Cloudy SCT008 BKN045 68 66.9 96% 30.04 1016.4
02 05:56 E 5 8.00 Fair CLR 66 66 100% 30.05 1016.8
02 04:56 E 5 5.00 Fog/Mist CLR 64.9 64.9 100% 30.05 1016.7
02 03:56 Calm 1.25 Fog/Mist CLR 64 64 100% 30.04 1016.7
02 02:56 Calm 0.50 Fog VV008 64 64 100% 30.05 1016.9
02 01:56 E 3 0.50 Fog CLR 63 63 72 63 100% 30.05 1017.1
02 00:56 Calm 0.50 Fog FEW003 BKN025 66 66 100% 30.05 1016.9
01 23:56 Calm 0.25 Fog CLR 66.9 66.9 100% 30.04 1016.6
01 22:56 Calm 1.25 Fog/Mist CLR 69.1 69.1 100% 30.04 1016.5
01 21:56 Calm 4.00 Fog/Mist BKN021 BKN034 OVC047 70 70 100% 30.03 1016.4
01 19:56 E 3 5.00 Fog/Mist FEW055 72 71.1 81 72 97% 29.99 1014.9
01 18:56 N 3 8.00 Mostly Cloudy BKN042 77 73 88% 78 29.99 1014.9
Date Time (edt) Wind (mph) Vis. (mi.) Weather Sky Cond. Air Dwpt Max. Min. Relative Humidity Wind Chill (°F) Heat Index (°F) altimeter (in) sea level (mb) 1 hr 3 hr 6 hr
6 hour
Temperature (ºF) Pressure Precipitation (in)